createdAt,value
2018-12-25T00:00:17.498Z,-3.40
2018-12-25T00:02:44.305Z,-3.30
2018-12-25T00:05:10.994Z,-3.30
2018-12-25T00:07:37.710Z,-3.20
2018-12-25T00:10:04.542Z,-3.20
2018-12-25T00:12:31.284Z,-3.20
2018-12-25T00:14:58.004Z,-3.10
2018-12-25T00:17:25.517Z,-3.10
2018-12-25T00:19:52.738Z,-3.10
2018-12-25T00:22:19.440Z,-3.00
2018-12-25T00:24:47.138Z,-2.90
2018-12-25T00:27:13.841Z,-2.90
2018-12-25T00:29:40.561Z,-2.90
2018-12-25T00:32:07.294Z,-2.90
2018-12-25T00:34:34.802Z,-2.80
2018-12-25T00:37:01.676Z,-2.80
2018-12-25T00:39:28.468Z,-2.70
2018-12-25T00:41:55.242Z,-2.70
2018-12-25T00:44:22.171Z,-2.70
2018-12-25T00:46:49.050Z,-2.70
2018-12-25T00:49:15.777Z,-2.70
2018-12-25T00:51:42.483Z,-2.60
2018-12-25T00:54:09.197Z,-2.60
2018-12-25T00:56:35.994Z,-2.50
2018-12-25T00:59:02.746Z,-2.50
2018-12-25T01:01:29.523Z,-2.40
2018-12-25T01:03:56.322Z,-2.50
2018-12-25T01:06:23.006Z,-2.40
2018-12-25T01:08:49.768Z,-2.40
2018-12-25T01:11:16.589Z,-2.40
2018-12-25T01:13:43.275Z,-2.40
2018-12-25T01:16:09.970Z,-2.40
2018-12-25T01:18:36.799Z,-2.30
2018-12-25T01:21:03.548Z,-2.30
2018-12-25T01:23:30.218Z,-2.30
2018-12-25T01:25:57.683Z,-2.30
2018-12-25T01:28:24.460Z,-2.30
2018-12-25T01:30:51.173Z,-2.20
2018-12-25T01:33:17.961Z,-2.20
2018-12-25T01:35:44.659Z,-2.20
2018-12-25T01:38:11.339Z,-2.20
2018-12-25T01:40:38.871Z,-2.10
2018-12-25T01:43:05.665Z,-2.20
2018-12-25T01:45:33.168Z,-2.10
2018-12-25T01:47:59.894Z,-2.10
2018-12-25T01:50:26.608Z,-2.10
2018-12-25T01:52:54.123Z,-2.00
2018-12-25T01:55:21.669Z,-2.00
2018-12-25T01:57:48.386Z,-2.00
2018-12-25T02:00:15.127Z,-2.00
2018-12-25T02:02:41.978Z,-2.00
2018-12-25T02:05:08.798Z,-1.90
2018-12-25T02:07:35.534Z,-1.90
2018-12-25T02:10:03.166Z,-1.90
2018-12-25T02:12:29.852Z,-1.90
2018-12-25T02:14:56.632Z,-1.90
2018-12-25T02:17:23.478Z,-1.90
2018-12-25T02:19:50.254Z,-1.90
2018-12-25T02:24:59.798Z,-1.80
2018-12-25T02:27:26.524Z,-1.80
2018-12-25T02:29:53.230Z,-1.80
2018-12-25T02:32:19.930Z,-1.80
2018-12-25T02:34:47.389Z,-1.70
2018-12-25T02:37:14.178Z,-1.80
2018-12-25T02:39:40.964Z,-1.70
2018-12-25T02:42:08.452Z,-1.70
2018-12-25T02:44:35.155Z,-1.70
2018-12-25T02:47:01.827Z,-1.70
2018-12-25T02:49:28.621Z,-1.70
2018-12-25T02:51:55.428Z,-1.70
2018-12-25T02:54:22.184Z,-1.70
2018-12-25T02:56:48.962Z,-1.70
2018-12-25T02:59:16.406Z,-1.60
2018-12-25T03:01:43.138Z,-1.60
2018-12-25T03:04:09.884Z,-1.60
2018-12-25T03:06:36.689Z,-1.60
2018-12-25T03:09:03.632Z,-1.60
2018-12-25T03:11:30.302Z,-1.50
2018-12-25T03:13:56.985Z,-1.50
2018-12-25T03:16:24.473Z,-1.50
2018-12-25T03:18:51.169Z,-1.50
2018-12-25T03:21:17.843Z,-1.50
2018-12-25T03:23:44.654Z,-1.50
2018-12-25T03:26:12.105Z,-1.40
2018-12-25T03:28:39.530Z,-1.40
2018-12-25T03:31:06.284Z,-1.40
2018-12-25T03:33:33.003Z,-1.40
2018-12-25T03:35:59.778Z,-1.40
2018-12-25T03:38:26.480Z,-1.40
2018-12-25T03:40:53.162Z,-1.40
2018-12-25T03:43:21.512Z,-1.40
2018-12-25T03:45:48.265Z,-1.40
2018-12-25T03:48:14.977Z,-1.40
2018-12-25T03:50:41.778Z,-1.40
2018-12-25T03:53:09.214Z,-1.30
2018-12-25T03:55:35.893Z,-1.40
2018-12-25T03:58:02.776Z,-1.40
2018-12-25T04:00:29.478Z,-1.40
2018-12-25T04:02:56.165Z,-1.50
2018-12-25T04:05:22.954Z,-1.60
2018-12-25T04:07:49.725Z,-1.60
2018-12-25T04:10:16.441Z,-1.60
2018-12-25T04:12:43.246Z,-1.50
2018-12-25T04:15:10.065Z,-1.60
2018-12-25T04:17:36.915Z,-1.60
2018-12-25T04:20:03.802Z,-1.70
2018-12-25T04:22:30.549Z,-1.70
2018-12-25T04:24:57.281Z,-1.80
2018-12-25T04:27:24.891Z,-2.00
2018-12-25T04:29:51.633Z,-2.00
2018-12-25T04:32:18.383Z,-2.00
2018-12-25T04:34:45.135Z,-2.10
2018-12-25T04:37:11.834Z,-2.10
2018-12-25T04:39:38.543Z,-2.20
2018-12-25T04:42:05.272Z,-2.20
2018-12-25T04:44:32.779Z,-2.20
2018-12-25T04:46:59.510Z,-2.20
2018-12-25T04:49:26.226Z,-2.20
2018-12-25T04:51:52.936Z,-2.20
2018-12-25T04:54:19.679Z,-2.20
2018-12-25T04:56:47.115Z,-2.10
2018-12-25T04:59:14.618Z,-2.10
2018-12-25T05:01:41.464Z,-2.10
2018-12-25T05:04:08.222Z,-2.00
2018-12-25T05:06:34.905Z,-2.00
2018-12-25T05:09:01.659Z,-1.90
2018-12-25T05:11:29.117Z,-1.90
2018-12-25T05:13:56.550Z,-1.90
2018-12-25T05:16:23.957Z,-1.90
2018-12-25T05:18:50.645Z,-1.90
2018-12-25T05:21:17.469Z,-1.90
2018-12-25T05:23:44.157Z,-2.00
2018-12-25T05:26:11.576Z,-2.10
2018-12-25T05:28:38.342Z,-2.10
2018-12-25T05:31:05.014Z,-2.10
2018-12-25T05:33:31.702Z,-2.10
2018-12-25T05:35:58.446Z,-2.20
2018-12-25T05:38:25.144Z,-2.30
2018-12-25T05:40:51.878Z,-2.30
2018-12-25T05:43:19.445Z,-2.40
2018-12-25T05:45:46.149Z,-2.40
2018-12-25T05:48:13.624Z,-2.40
2018-12-25T05:50:46.583Z,-2.50
2018-12-25T05:53:07.261Z,-2.50
2018-12-25T05:55:34.058Z,-2.50
2018-12-25T05:58:00.794Z,-2.50
2018-12-25T06:00:27.551Z,-2.60
2018-12-25T06:02:54.412Z,-2.60
2018-12-25T06:05:21.133Z,-2.60
2018-12-25T06:07:47.835Z,-2.60
2018-12-25T06:10:14.684Z,-2.60
2018-12-25T06:12:42.144Z,-2.70
2018-12-25T06:15:09.557Z,-2.70
2018-12-25T06:17:36.341Z,-2.70
2018-12-25T06:20:03.843Z,-2.60
2018-12-25T06:22:30.513Z,-2.60
2018-12-25T06:24:57.315Z,-2.50
2018-12-25T06:27:24.044Z,-2.60
2018-12-25T06:30:05.749Z,-2.60
2018-12-25T06:32:32.427Z,-2.70
2018-12-25T06:34:59.165Z,-2.80
2018-12-25T06:37:26.003Z,-2.80
2018-12-25T06:39:53.478Z,-2.80
2018-12-25T06:42:21.011Z,-2.80
2018-12-25T06:44:48.788Z,-2.80
2018-12-25T06:47:15.485Z,-2.80
2018-12-25T06:49:42.202Z,-2.80
2018-12-25T06:52:09.045Z,-2.80
2018-12-25T06:54:36.548Z,-2.80
2018-12-25T06:57:03.297Z,-2.80
2018-12-25T06:59:30.010Z,-2.80
2018-12-25T07:01:56.791Z,-2.90
2018-12-25T07:04:23.490Z,-2.90
2018-12-25T07:06:50.601Z,-2.90
2018-12-25T07:09:17.055Z,-2.90
2018-12-25T07:11:43.888Z,-2.80
2018-12-25T07:14:11.357Z,-2.80
2018-12-25T07:16:38.095Z,-2.80
2018-12-25T07:19:04.848Z,-2.90
2018-12-25T07:21:31.604Z,-2.90
2018-12-25T07:23:58.386Z,-2.90
2018-12-25T07:26:25.054Z,-2.90
2018-12-25T07:28:51.908Z,-3.00
2018-12-25T07:31:18.636Z,-3.00
2018-12-25T07:33:46.035Z,-3.00
2018-12-25T07:36:12.826Z,-3.00
2018-12-25T07:38:43.350Z,-3.00
2018-12-25T07:41:10.851Z,-2.90
2018-12-25T07:43:37.580Z,-3.00
2018-12-25T07:46:04.321Z,-2.90
2018-12-25T07:48:31.030Z,-2.90
2018-12-25T07:50:58.525Z,-2.90
2018-12-25T07:53:25.238Z,-2.90
2018-12-25T07:55:52.693Z,-2.70
2018-12-25T07:58:20.202Z,-2.70
2018-12-25T08:00:46.902Z,-2.70
2018-12-25T08:03:13.653Z,-2.70
2018-12-25T08:05:40.443Z,-2.60
2018-12-25T08:08:07.146Z,-2.60
2018-12-25T08:10:33.887Z,-2.60
2018-12-25T08:13:00.683Z,-2.50
2018-12-25T08:15:28.142Z,-2.40
2018-12-25T08:17:55.636Z,-2.20
2018-12-25T08:20:22.362Z,-2.30
2018-12-25T08:22:49.013Z,-2.20
2018-12-25T08:25:15.710Z,-2.20
2018-12-25T08:27:42.539Z,-2.10
2018-12-25T08:30:09.227Z,-2.10
2018-12-25T08:32:35.941Z,-2.00
2018-12-25T08:35:03.516Z,-1.90
2018-12-25T08:37:31.041Z,-1.90
2018-12-25T08:39:57.826Z,-1.90
2018-12-25T08:42:24.583Z,-1.80
2018-12-25T08:44:51.248Z,-1.80
2018-12-25T08:47:17.986Z,-1.80
2018-12-25T08:49:44.854Z,-1.70
2018-12-25T08:52:12.314Z,-1.50
2018-12-25T08:54:39.754Z,-1.50
2018-12-25T08:57:06.621Z,-1.40
2018-12-25T08:59:34.036Z,-1.30
2018-12-25T09:02:00.773Z,-1.40
2018-12-25T09:04:27.843Z,-1.30
2018-12-25T09:06:55.351Z,-1.20
2018-12-25T09:09:22.102Z,-1.20
2018-12-25T09:11:48.827Z,-1.20
2018-12-25T09:14:15.487Z,-1.10
2018-12-25T09:16:42.300Z,-1.10
2018-12-25T09:19:08.981Z,-0.90
2018-12-25T09:21:35.650Z,-0.90
2018-12-25T09:24:03.683Z,-0.80
2018-12-25T09:26:30.502Z,-0.80
2018-12-25T09:28:57.252Z,-0.70
2018-12-25T09:31:24.031Z,-0.70
2018-12-25T09:33:51.506Z,-0.50
2018-12-25T09:36:18.978Z,-0.40
2018-12-25T09:38:45.691Z,-0.50
2018-12-25T09:41:13.251Z,-0.20
2018-12-25T09:43:40.005Z,-0.30
2018-12-25T09:46:07.296Z,-0.20
2018-12-25T09:48:34.067Z,-0.10
2018-12-25T09:51:00.777Z,0.00
2018-12-25T09:53:28.254Z,0.00
2018-12-25T09:55:55.058Z,0.00
2018-12-25T09:58:22.783Z,0.10
2018-12-25T10:00:49.527Z,0.10
2018-12-25T10:03:16.365Z,0.10
2018-12-25T10:05:43.944Z,0.20
2018-12-25T10:08:11.435Z,0.20
2018-12-25T10:10:38.334Z,0.20
2018-12-25T10:13:05.047Z,0.30
2018-12-25T10:15:31.959Z,0.40
2018-12-25T10:17:59.653Z,0.40
2018-12-25T10:20:25.541Z,0.50
2018-12-25T10:22:52.378Z,0.60
2018-12-25T10:25:20.669Z,0.80
2018-12-25T10:27:47.632Z,0.70
2018-12-25T10:30:14.365Z,0.80
2018-12-25T10:32:41.108Z,0.80
2018-12-25T10:35:07.838Z,0.70
2018-12-25T10:37:34.608Z,0.60
2018-12-25T10:40:01.293Z,0.60
2018-12-25T10:42:28.778Z,0.60
2018-12-25T10:44:55.589Z,0.60
2018-12-25T10:47:22.351Z,0.50
2018-12-25T10:49:49.048Z,0.40
2018-12-25T10:52:15.810Z,0.50
2018-12-25T10:54:43.310Z,0.50
2018-12-25T10:57:10.039Z,0.50
2018-12-25T10:59:36.789Z,0.50
2018-12-25T11:02:03.602Z,0.60
2018-12-25T11:04:30.343Z,0.60
2018-12-25T11:06:57.114Z,0.80
2018-12-25T11:09:24.613Z,0.80
2018-12-25T11:11:52.076Z,0.70
2018-12-25T11:14:19.672Z,0.70
2018-12-25T11:16:46.387Z,0.70
2018-12-25T11:19:14.147Z,0.80
2018-12-25T11:21:40.964Z,0.70
2018-12-25T11:24:07.673Z,0.80
2018-12-25T11:26:34.400Z,0.70
2018-12-25T11:29:01.067Z,0.80
2018-12-25T11:31:27.780Z,0.90
2018-12-25T11:33:54.575Z,0.80
2018-12-25T11:36:21.233Z,0.90
2018-12-25T11:38:48.662Z,1.10
2018-12-25T11:41:15.411Z,1.00
2018-12-25T11:43:42.103Z,1.00
2018-12-25T11:46:08.820Z,1.00
2018-12-25T11:48:35.614Z,0.90
2018-12-25T11:51:02.320Z,0.90
2018-12-25T11:53:29.033Z,0.80
2018-12-25T11:55:56.576Z,0.70
2018-12-25T12:01:17.242Z,0.80
2018-12-25T12:03:44.048Z,0.70
2018-12-25T12:06:10.875Z,0.80
2018-12-25T12:08:37.695Z,0.90
2018-12-25T12:11:04.434Z,0.90
2018-12-25T12:13:31.133Z,0.90
2018-12-25T12:15:58.011Z,1.00
2018-12-25T12:18:24.745Z,1.00
2018-12-25T12:20:51.505Z,0.90
2018-12-25T12:23:18.375Z,1.00
2018-12-25T12:25:45.101Z,1.00
2018-12-25T12:28:11.885Z,0.90
2018-12-25T12:30:38.637Z,0.90
2018-12-25T12:33:05.295Z,0.90
2018-12-25T12:35:32.095Z,0.90
2018-12-25T12:37:58.791Z,0.90
2018-12-25T12:40:25.506Z,0.90
2018-12-25T12:42:52.209Z,0.90
2018-12-25T12:45:19.646Z,1.10
2018-12-25T12:47:46.445Z,1.10
2018-12-25T12:50:13.219Z,1.10
2018-12-25T12:52:45.528Z,1.10
2018-12-25T12:55:07.629Z,1.10
2018-12-25T12:57:34.390Z,1.10
2018-12-25T13:00:01.248Z,1.10
2018-12-25T13:02:27.979Z,1.10
2018-12-25T13:04:54.773Z,1.10
2018-12-25T13:07:21.474Z,1.10
2018-12-25T13:09:48.262Z,1.20
2018-12-25T13:12:15.071Z,1.10
2018-12-25T13:14:42.562Z,1.10
2018-12-25T13:17:10.038Z,1.10
2018-12-25T13:19:36.781Z,1.10
2018-12-25T13:22:03.586Z,1.10
2018-12-25T13:24:30.400Z,1.10
2018-12-25T13:26:57.150Z,1.10
2018-12-25T13:29:23.823Z,1.00
2018-12-25T13:31:50.595Z,1.00
2018-12-25T13:34:18.012Z,0.80
2018-12-25T13:36:44.754Z,0.80
2018-12-25T13:39:11.572Z,0.70
2018-12-25T13:41:38.242Z,0.70
2018-12-25T13:44:04.932Z,0.60
2018-12-25T13:46:32.424Z,0.50
2018-12-25T13:48:59.238Z,0.40
2018-12-25T13:51:26.120Z,0.30
2018-12-25T13:53:52.877Z,0.30
2018-12-25T13:56:19.572Z,0.20
2018-12-25T13:58:46.311Z,0.20
2018-12-25T14:01:13.085Z,0.20
2018-12-25T14:03:39.761Z,0.10
2018-12-25T14:06:06.447Z,0.00
2018-12-25T14:08:33.233Z,0.00
2018-12-25T14:10:59.942Z,0.00
2018-12-25T14:13:26.638Z,0.00
2018-12-25T14:15:54.112Z,0.00
2018-12-25T14:18:20.808Z,0.00
2018-12-25T14:20:48.303Z,0.10
2018-12-25T14:23:15.025Z,0.10
2018-12-25T14:25:42.489Z,0.10
2018-12-25T14:28:09.244Z,0.10
2018-12-25T14:30:35.953Z,0.10
2018-12-25T14:33:03.463Z,0.00
2018-12-25T14:35:30.210Z,0.00
2018-12-25T14:37:56.910Z,0.00
2018-12-25T14:40:23.611Z,0.10
2018-12-25T14:42:50.416Z,0.10
2018-12-25T14:45:17.086Z,0.10
2018-12-25T14:47:43.814Z,0.10
2018-12-25T14:50:10.616Z,0.20
2018-12-25T14:52:37.352Z,0.30
2018-12-25T14:55:04.788Z,0.40
2018-12-25T14:57:32.321Z,0.40
2018-12-25T14:59:59.070Z,0.40
2018-12-25T15:02:25.775Z,0.40
2018-12-25T15:04:52.568Z,0.50
2018-12-25T15:07:20.030Z,0.60
2018-12-25T15:09:46.714Z,0.60
2018-12-25T15:12:14.241Z,0.60
2018-12-25T15:14:41.635Z,0.60
2018-12-25T15:17:08.304Z,0.60
2018-12-25T15:19:35.073Z,0.70
2018-12-25T15:22:16.747Z,0.70
2018-12-25T15:24:43.590Z,0.70
2018-12-25T15:27:11.046Z,0.80
2018-12-25T15:29:38.681Z,1.10
2018-12-25T15:32:05.473Z,1.10
2018-12-25T15:34:32.925Z,1.30
2018-12-25T15:36:59.692Z,1.30
2018-12-25T15:39:26.435Z,1.40
2018-12-25T15:41:53.142Z,1.40
2018-12-25T15:47:18.483Z,1.40
2018-12-25T15:49:45.354Z,1.50
2018-12-25T15:52:12.153Z,1.50
2018-12-25T15:54:39.550Z,1.40
2018-12-25T15:57:06.346Z,1.40
2018-12-25T15:59:33.913Z,1.40
2018-12-25T16:02:01.322Z,1.40
2018-12-25T16:04:28.048Z,1.30
2018-12-25T16:06:55.133Z,1.30
2018-12-25T16:09:21.802Z,1.30
2018-12-25T16:11:49.315Z,1.30
2018-12-25T16:14:16.856Z,1.30
2018-12-25T16:16:44.566Z,1.20
2018-12-25T16:19:12.136Z,1.40
2018-12-25T16:21:39.562Z,1.40
2018-12-25T16:24:06.398Z,1.30
2018-12-25T16:26:33.385Z,1.30
2018-12-25T16:29:00.832Z,1.30
2018-12-25T16:31:27.466Z,1.20
2018-12-25T16:33:54.225Z,1.30
2018-12-25T16:36:21.631Z,1.20
2018-12-25T16:38:48.336Z,1.20
2018-12-25T16:41:15.053Z,1.30
2018-12-25T16:43:41.711Z,1.30
2018-12-25T16:46:08.398Z,1.30
2018-12-25T16:48:35.341Z,1.30
2018-12-25T16:51:02.968Z,1.30
2018-12-25T16:53:29.840Z,1.30
2018-12-25T16:55:56.554Z,1.30
2018-12-25T16:58:23.242Z,1.40
2018-12-25T17:00:50.197Z,1.40
2018-12-25T17:03:17.626Z,1.40
2018-12-25T17:05:59.261Z,1.40
2018-12-25T17:08:25.951Z,1.40
2018-12-25T17:10:52.613Z,1.50
2018-12-25T17:13:19.322Z,1.60
2018-12-25T17:15:46.029Z,1.60
2018-12-25T17:18:13.454Z,1.60
2018-12-25T17:20:40.180Z,1.60
2018-12-25T17:23:07.045Z,1.60
2018-12-25T17:25:34.476Z,1.70
2018-12-25T17:28:01.237Z,1.70
2018-12-25T17:30:27.950Z,1.80
2018-12-25T17:32:55.649Z,1.70
2018-12-25T17:35:24.600Z,1.70
2018-12-25T17:37:51.456Z,1.60
2018-12-25T17:40:18.177Z,1.70
2018-12-25T17:42:44.940Z,1.70
2018-12-25T17:45:11.637Z,1.80
2018-12-25T17:47:39.049Z,1.70
2018-12-25T17:50:05.764Z,1.70
2018-12-25T17:52:32.867Z,1.80
2018-12-25T17:55:00.279Z,1.80
2018-12-25T17:57:27.900Z,1.80
2018-12-25T17:59:54.585Z,1.80
2018-12-25T18:02:21.445Z,1.90
2018-12-25T18:04:48.172Z,1.90
2018-12-25T18:07:15.595Z,2.00
2018-12-25T18:09:42.303Z,1.90
2018-12-25T18:12:10.073Z,2.00
2018-12-25T18:14:37.482Z,2.00
2018-12-25T18:17:05.033Z,1.90
2018-12-25T18:19:32.589Z,2.00
2018-12-25T18:21:59.298Z,2.00
2018-12-25T18:24:25.975Z,2.00
2018-12-25T18:26:52.720Z,2.00
2018-12-25T18:29:20.145Z,2.10
2018-12-25T18:31:46.919Z,2.10
2018-12-25T18:34:13.712Z,2.10
2018-12-25T18:36:40.430Z,2.10
2018-12-25T18:39:07.881Z,2.10
2018-12-25T18:41:35.392Z,2.20
2018-12-25T18:44:02.159Z,2.10
2018-12-25T18:46:28.865Z,2.20
2018-12-25T18:48:55.721Z,2.20
2018-12-25T18:51:22.503Z,2.20
2018-12-25T18:53:50.005Z,2.30
2018-12-25T18:56:16.772Z,2.30
2018-12-25T18:58:43.530Z,2.40
2018-12-25T19:01:11.181Z,2.60
2018-12-25T19:03:37.875Z,2.50
2018-12-25T19:06:04.621Z,2.60
2018-12-25T19:08:31.409Z,2.60
2018-12-25T19:10:58.959Z,2.70
2018-12-25T19:13:25.617Z,2.70
2018-12-25T19:15:52.437Z,2.70
2018-12-25T19:18:19.241Z,2.70
2018-12-25T19:20:49.509Z,2.70
2018-12-25T19:23:16.403Z,2.70
2018-12-25T19:25:44.482Z,2.80
2018-12-25T19:28:13.429Z,2.80
2018-12-25T19:30:40.225Z,2.80
2018-12-25T19:33:08.346Z,2.90
2018-12-25T19:35:35.061Z,2.90
2018-12-25T19:38:01.854Z,2.90
2018-12-25T19:40:28.621Z,3.00
2018-12-25T19:42:55.325Z,3.10
2018-12-25T19:45:22.875Z,3.30
2018-12-25T19:47:49.585Z,3.30
2018-12-25T19:50:16.296Z,3.50
2018-12-25T19:52:43.053Z,3.60
2018-12-25T19:55:09.795Z,3.60
2018-12-25T19:57:36.749Z,3.50
2018-12-25T20:00:03.588Z,3.50
2018-12-25T20:02:30.343Z,3.30
2018-12-25T20:04:59.597Z,3.30
2018-12-25T20:10:51.690Z,3.10
2018-12-25T20:13:44.240Z,3.10
2018-12-25T20:16:41.592Z,3.20
2018-12-25T20:19:11.269Z,3.20
2018-12-25T20:21:52.623Z,3.10
2018-12-25T20:27:38.252Z,3.00
2018-12-25T20:30:15.212Z,2.90
2018-12-25T20:32:47.468Z,3.00
2018-12-25T20:35:27.092Z,3.00
2018-12-25T20:37:56.808Z,3.10
2018-12-25T20:43:48.707Z,3.10
2018-12-25T20:46:20.262Z,3.10
2018-12-25T20:52:04.519Z,3.00
2018-12-25T20:55:00.952Z,3.00
2018-12-25T20:57:34.350Z,3.00
2018-12-25T21:00:14.465Z,3.00
2018-12-25T21:02:53.285Z,2.90
2018-12-25T21:08:31.012Z,2.80
2018-12-25T21:11:15.729Z,2.80
2018-12-25T21:14:03.676Z,2.80
2018-12-25T21:16:38.505Z,2.90
2018-12-25T21:19:16.242Z,2.70
2018-12-25T21:22:12.542Z,2.80
2018-12-25T21:24:51.502Z,2.80
2018-12-25T21:27:28.952Z,2.90
2018-12-25T21:29:55.759Z,2.80
2018-12-25T21:32:22.490Z,2.80
2018-12-25T21:34:49.531Z,2.90
2018-12-25T21:37:16.441Z,2.90
2018-12-25T21:39:43.275Z,2.90
2018-12-25T21:42:10.064Z,2.90
2018-12-25T21:44:36.994Z,2.90
2018-12-25T21:47:04.535Z,3.10
2018-12-25T21:49:31.400Z,3.00
2018-12-25T21:51:58.409Z,3.10
2018-12-25T21:54:25.194Z,3.00
2018-12-25T21:56:51.970Z,3.10
2018-12-25T21:59:18.776Z,3.10
2018-12-25T22:01:45.623Z,3.10
2018-12-25T22:04:12.673Z,3.20
2018-12-25T22:06:40.110Z,3.10
2018-12-25T22:09:06.880Z,3.10
2018-12-25T22:11:34.628Z,3.10
2018-12-25T22:14:02.119Z,3.10
2018-12-25T22:16:29.531Z,3.20
2018-12-25T22:18:56.468Z,3.10
2018-12-25T22:21:23.186Z,3.10
2018-12-25T22:23:49.827Z,3.10
2018-12-25T22:26:16.485Z,3.00
2018-12-25T22:28:43.316Z,3.00
2018-12-25T22:31:10.204Z,3.00
2018-12-25T22:33:36.874Z,3.00
2018-12-25T22:36:04.304Z,2.90
2018-12-25T22:38:31.038Z,2.90
2018-12-25T22:40:57.697Z,2.90
2018-12-25T22:43:25.095Z,2.90
2018-12-25T22:45:51.884Z,2.90
2018-12-25T22:48:18.667Z,3.00
2018-12-25T22:50:45.362Z,3.00
2018-12-25T22:53:12.798Z,3.00
2018-12-25T22:55:39.497Z,3.00
2018-12-25T22:58:06.193Z,3.00
2018-12-25T23:00:32.884Z,3.00
2018-12-25T23:03:01.364Z,3.10
2018-12-25T23:05:28.281Z,3.10
2018-12-25T23:07:55.812Z,3.20
2018-12-25T23:10:22.560Z,3.20
2018-12-25T23:12:49.219Z,3.30
2018-12-25T23:15:15.976Z,3.30
2018-12-25T23:17:43.100Z,3.30
2018-12-25T23:20:10.840Z,3.40
2018-12-25T23:22:38.829Z,3.40
2018-12-25T23:25:06.653Z,3.40
2018-12-25T23:27:34.527Z,3.40
2018-12-25T23:30:02.694Z,3.50
2018-12-25T23:32:30.758Z,3.50
2018-12-25T23:34:58.378Z,3.50
2018-12-25T23:37:26.145Z,3.50
2018-12-25T23:39:53.683Z,3.40
2018-12-25T23:42:21.119Z,3.40
2018-12-25T23:44:48.256Z,3.30
2018-12-25T23:47:15.267Z,3.30
2018-12-25T23:49:42.564Z,3.30
2018-12-25T23:52:10.029Z,3.30
2018-12-25T23:54:36.815Z,3.20
2018-12-25T23:57:04.278Z,3.20
2018-12-25T23:59:31.156Z,3.20
